createdAt,value
2022-12-06T00:01:15.795Z,90.76
2022-12-06T00:03:44.834Z,91.25
2022-12-06T00:06:14.831Z,91.42
2022-12-06T00:08:42.223Z,91.09
2022-12-06T00:11:12.030Z,90.94
2022-12-06T00:13:39.849Z,90.55
2022-12-06T00:16:10.039Z,90.84
2022-12-06T00:18:38.310Z,90.33
2022-12-06T00:21:12.359Z,90.63
2022-12-06T00:23:42.111Z,91.18
2022-12-06T00:26:09.983Z,90.79
2022-12-06T00:28:38.159Z,90.98
2022-12-06T00:31:08.274Z,91.20
2022-12-06T00:33:36.609Z,90.66
2022-12-06T00:36:10.975Z,90.82
2022-12-06T00:38:37.819Z,90.92
2022-12-06T00:41:07.542Z,91.44
2022-12-06T00:43:35.568Z,91.77
2022-12-06T00:46:03.672Z,92.16
2022-12-06T00:48:31.033Z,92.22
2022-12-06T00:50:58.014Z,92.04
2022-12-06T00:53:26.936Z,91.56
2022-12-06T00:55:55.494Z,91.33
2022-12-06T00:58:22.785Z,91.50
2022-12-06T01:00:49.967Z,91.74
2022-12-06T01:03:17.282Z,91.94
2022-12-06T01:05:48.660Z,92.05
2022-12-06T01:08:17.205Z,91.98
2022-12-06T01:10:52.118Z,92.22
2022-12-06T01:13:19.254Z,92.66
2022-12-06T01:15:46.297Z,92.63
2022-12-06T01:18:13.374Z,92.69
2022-12-06T01:20:40.242Z,92.79
2022-12-06T01:23:07.225Z,92.52
2022-12-06T01:25:36.172Z,92.73
2022-12-06T01:28:04.064Z,92.56
2022-12-06T01:30:31.244Z,93.02
2022-12-06T01:32:58.200Z,92.75
2022-12-06T01:35:25.082Z,92.83
2022-12-06T01:37:51.993Z,92.83
2022-12-06T01:40:18.879Z,92.64
2022-12-06T01:42:46.001Z,92.60
2022-12-06T01:45:12.859Z,92.54
2022-12-06T01:47:43.372Z,93.05
2022-12-06T01:50:16.681Z,92.88
2022-12-06T01:53:02.242Z,92.63
2022-12-06T01:55:32.939Z,92.01
2022-12-06T01:58:09.534Z,91.86
2022-12-06T02:00:36.438Z,91.79
2022-12-06T02:03:05.264Z,91.06
2022-12-06T02:05:37.499Z,91.41
2022-12-06T02:08:10.018Z,90.75
2022-12-06T02:10:38.086Z,91.93
2022-12-06T02:13:06.320Z,91.83
2022-12-06T02:15:48.437Z,91.73
2022-12-06T02:18:53.042Z,91.56
2022-12-06T02:21:28.765Z,91.83
2022-12-06T02:24:20.466Z,91.29
2022-12-06T02:27:22.437Z,90.97
2022-12-06T02:30:08.801Z,91.02
2022-12-06T02:32:49.166Z,91.55
2022-12-06T02:35:21.673Z,91.37
2022-12-06T02:37:51.887Z,91.82
2022-12-06T02:40:28.887Z,91.06
2022-12-06T02:43:18.176Z,91.53
2022-12-06T02:45:57.197Z,91.36
2022-12-06T02:48:26.368Z,91.13
2022-12-06T02:51:01.043Z,90.27
2022-12-06T02:53:31.287Z,90.41
2022-12-06T02:55:59.016Z,89.92
2022-12-06T02:58:26.421Z,89.61
2022-12-06T03:00:58.254Z,90.21
2022-12-06T03:03:55.065Z,89.86
2022-12-06T03:26:27.986Z,92.32
2022-12-06T03:28:58.194Z,91.89
2022-12-06T03:31:28.459Z,91.26
2022-12-06T03:34:00.898Z,90.23
2022-12-06T03:36:30.165Z,89.75
2022-12-06T03:39:08.040Z,88.99
2022-12-06T03:41:51.406Z,88.40
2022-12-06T03:44:19.321Z,87.78
2022-12-06T03:46:50.765Z,87.92
2022-12-06T03:49:25.828Z,87.66
2022-12-06T03:51:52.911Z,87.23
2022-12-06T03:54:19.869Z,87.68
2022-12-06T03:56:46.745Z,87.09
2022-12-06T03:59:13.650Z,87.10
2022-12-06T04:01:40.892Z,87.15
2022-12-06T04:04:08.121Z,87.73
2022-12-06T04:06:35.211Z,86.95
2022-12-06T04:09:20.619Z,86.38
2022-12-06T04:11:47.541Z,87.08
2022-12-06T04:14:14.495Z,87.14
2022-12-06T04:17:00.158Z,87.80
2022-12-06T04:19:27.131Z,88.03
2022-12-06T04:22:12.495Z,88.40
2022-12-06T04:24:39.495Z,88.53
2022-12-06T04:27:24.783Z,88.48
2022-12-06T04:30:10.228Z,88.70
2022-12-06T04:32:55.550Z,89.11
2022-12-06T04:35:41.357Z,88.98
2022-12-06T04:38:26.785Z,89.48
2022-12-06T04:40:53.633Z,89.76
2022-12-06T04:43:39.203Z,89.81
2022-12-06T04:46:07.209Z,89.84
2022-12-06T04:48:34.054Z,89.99
2022-12-06T04:51:01.038Z,89.84
2022-12-06T04:53:28.701Z,89.81
2022-12-06T04:55:55.683Z,90.29
2022-12-06T04:58:23.365Z,90.33
2022-12-06T05:00:52.034Z,90.33
2022-12-06T05:03:19.014Z,89.79
2022-12-06T05:05:46.338Z,89.98
2022-12-06T05:08:13.543Z,89.78
2022-12-06T05:10:40.397Z,89.94
2022-12-06T05:13:07.421Z,89.76
2022-12-06T05:15:34.339Z,89.55
2022-12-06T05:18:01.118Z,89.67
2022-12-06T05:20:28.000Z,89.74
2022-12-06T05:22:54.900Z,89.88
2022-12-06T05:25:21.794Z,90.25
2022-12-06T05:27:48.738Z,90.15
2022-12-06T05:30:15.837Z,90.18
2022-12-06T05:32:42.688Z,89.98
2022-12-06T05:35:09.881Z,89.94
2022-12-06T05:37:36.850Z,89.06
2022-12-06T05:40:04.592Z,89.47
2022-12-06T05:42:31.633Z,89.50
2022-12-06T05:44:58.415Z,89.27
2022-12-06T05:47:25.385Z,89.04
2022-12-06T05:49:52.643Z,89.05
2022-12-06T05:52:19.519Z,88.93
2022-12-06T05:54:46.415Z,89.43
2022-12-06T05:57:13.354Z,89.64
2022-12-06T05:59:40.263Z,89.76
2022-12-06T06:02:07.119Z,89.35
2022-12-06T06:04:34.414Z,89.03
2022-12-06T06:07:01.640Z,89.39
2022-12-06T06:09:28.537Z,88.93
2022-12-06T06:11:56.153Z,88.93
2022-12-06T06:14:23.569Z,88.39
2022-12-06T06:16:52.384Z,88.31
2022-12-06T06:19:19.658Z,88.21
2022-12-06T06:21:47.248Z,88.00
2022-12-06T06:24:14.179Z,87.73
2022-12-06T06:26:41.125Z,87.08
2022-12-06T06:29:08.028Z,87.50
2022-12-06T06:31:35.290Z,87.37
2022-12-06T06:34:02.230Z,87.43
2022-12-06T06:36:29.211Z,87.08
2022-12-06T06:38:56.122Z,86.84
2022-12-06T06:41:22.964Z,86.54
2022-12-06T06:43:49.944Z,87.22
2022-12-06T06:46:16.991Z,87.01
2022-12-06T06:48:43.890Z,87.37
2022-12-06T06:51:14.981Z,86.91
2022-12-06T06:53:42.005Z,86.77
2022-12-06T06:56:09.439Z,86.08
2022-12-06T06:58:36.345Z,85.93
2022-12-06T07:01:05.909Z,86.31
2022-12-06T07:03:33.667Z,86.67
2022-12-06T07:06:18.835Z,86.06
2022-12-06T07:08:49.349Z,86.56
2022-12-06T07:11:16.445Z,86.67
2022-12-06T07:13:48.206Z,86.21
2022-12-06T07:16:19.412Z,86.37
2022-12-06T07:18:47.689Z,85.97
2022-12-06T07:21:16.301Z,85.61
2022-12-06T07:23:43.304Z,86.33
2022-12-06T07:26:12.659Z,86.30
2022-12-06T07:28:41.434Z,86.35
2022-12-06T07:31:12.949Z,86.57
2022-12-06T07:33:40.229Z,85.80
2022-12-06T07:36:12.910Z,86.02
2022-12-06T07:38:42.170Z,85.32
2022-12-06T07:41:30.517Z,85.83
2022-12-06T07:44:18.657Z,85.11
2022-12-06T07:46:46.653Z,85.29
2022-12-06T07:49:15.803Z,84.46
2022-12-06T07:51:43.893Z,84.48
2022-12-06T07:54:10.671Z,83.68
2022-12-06T07:56:37.789Z,83.48
2022-12-06T07:59:05.198Z,83.40
2022-12-06T08:01:32.292Z,82.55
2022-12-06T08:04:04.030Z,83.06
2022-12-06T08:06:32.091Z,82.76
2022-12-06T08:08:59.273Z,82.56
2022-12-06T08:11:26.267Z,83.47
2022-12-06T08:13:53.147Z,83.08
2022-12-06T08:16:20.219Z,81.82
2022-12-06T08:18:47.493Z,82.14
2022-12-06T08:21:14.559Z,82.03
2022-12-06T08:23:41.440Z,82.16
2022-12-06T08:26:12.521Z,83.42
2022-12-06T08:28:40.130Z,83.09
2022-12-06T08:31:13.955Z,82.17
2022-12-06T08:33:41.697Z,81.48
2022-12-06T08:36:11.308Z,82.13
2022-12-06T08:38:38.419Z,82.32
2022-12-06T08:41:27.363Z,81.62
2022-12-06T08:43:55.612Z,82.71
2022-12-06T08:46:23.302Z,82.37
2022-12-06T08:48:50.561Z,81.73
2022-12-06T08:51:17.744Z,81.99
2022-12-06T08:53:44.834Z,82.30
2022-12-06T08:56:11.853Z,81.80
2022-12-06T08:58:38.744Z,81.78
2022-12-06T09:01:23.966Z,81.83
2022-12-06T09:03:51.165Z,80.82
2022-12-06T09:06:19.589Z,80.60
2022-12-06T09:08:47.194Z,81.19
2022-12-06T09:11:15.509Z,81.51
2022-12-06T09:13:43.562Z,82.80
2022-12-06T09:16:16.165Z,83.18
2022-12-06T09:18:44.248Z,82.24
2022-12-06T09:21:16.985Z,81.74
2022-12-06T09:23:44.383Z,82.82
2022-12-06T09:26:13.129Z,81.83
2022-12-06T09:28:41.902Z,82.02
2022-12-06T09:31:11.054Z,82.87
2022-12-06T09:33:39.619Z,82.28
2022-12-06T09:36:13.231Z,82.21
2022-12-06T09:38:42.732Z,81.87
2022-12-06T09:41:43.353Z,82.45
2022-12-06T09:44:51.537Z,81.75
2022-12-06T09:47:48.196Z,82.10
2022-12-06T09:50:45.084Z,82.35
2022-12-06T09:53:17.660Z,82.48
2022-12-06T09:56:12.267Z,81.82
2022-12-06T09:59:03.433Z,81.31
2022-12-06T10:01:48.657Z,81.34
2022-12-06T10:04:33.612Z,82.18
2022-12-06T10:07:26.828Z,81.49
2022-12-06T10:10:03.110Z,81.50
2022-12-06T10:12:42.580Z,81.89
2022-12-06T10:15:22.197Z,81.91
2022-12-06T10:17:59.168Z,81.68
2022-12-06T10:20:47.712Z,82.67
2022-12-06T10:23:30.091Z,82.65
2022-12-06T10:26:17.499Z,83.61
2022-12-06T10:28:48.365Z,84.96
2022-12-06T10:31:23.792Z,85.03
2022-12-06T10:34:02.502Z,85.23
2022-12-06T10:36:46.205Z,84.98
2022-12-06T10:39:24.854Z,84.91
2022-12-06T10:42:27.046Z,84.83
2022-12-06T10:45:37.011Z,83.27
2022-12-06T10:48:14.608Z,82.77
2022-12-06T10:50:43.622Z,83.42
2022-12-06T10:53:15.365Z,83.22
2022-12-06T10:55:54.818Z,82.94
2022-12-06T10:58:38.461Z,82.27
2022-12-06T11:01:19.082Z,81.64
2022-12-06T11:04:00.158Z,81.69
2022-12-06T11:06:36.497Z,81.84
2022-12-06T11:09:17.590Z,81.73
2022-12-06T11:11:45.788Z,82.00
2022-12-06T11:14:29.147Z,82.24
2022-12-06T11:17:05.884Z,82.47
2022-12-06T11:19:50.143Z,81.56
2022-12-06T11:22:46.373Z,81.85
2022-12-06T11:25:39.660Z,82.52
2022-12-06T11:28:28.416Z,82.14
2022-12-06T11:30:56.984Z,82.07
2022-12-06T11:33:32.785Z,81.95
2022-12-06T11:36:05.981Z,81.94
2022-12-06T11:38:34.610Z,81.89
2022-12-06T11:41:02.954Z,81.05
2022-12-06T11:43:35.465Z,81.08
2022-12-06T11:46:04.638Z,79.75
2022-12-06T11:48:34.531Z,80.07
2022-12-06T11:51:01.955Z,78.92
2022-12-06T11:53:45.948Z,80.14
2022-12-06T11:56:24.310Z,79.92
2022-12-06T11:59:15.676Z,78.98
2022-12-06T12:01:49.017Z,79.48
2022-12-06T12:04:38.843Z,80.56
2022-12-06T12:07:08.684Z,80.87
2022-12-06T12:09:54.383Z,81.27
2022-12-06T12:12:24.556Z,81.16
2022-12-06T12:14:57.853Z,80.28
2022-12-06T12:17:31.686Z,81.14
2022-12-06T12:20:08.117Z,81.05
2022-12-06T12:22:43.328Z,80.95
2022-12-06T12:25:29.688Z,81.84
2022-12-06T12:27:58.835Z,82.11
2022-12-06T12:30:36.356Z,82.73
2022-12-06T12:33:06.225Z,83.12
2022-12-06T12:35:33.141Z,83.94
2022-12-06T12:38:43.682Z,84.70
2022-12-06T12:41:39.937Z,84.40
2022-12-06T12:47:23.484Z,84.83
2022-12-06T12:50:07.472Z,84.81
2022-12-06T12:52:39.693Z,85.16
2022-12-06T12:55:12.822Z,85.04
2022-12-06T12:57:41.119Z,84.87
2022-12-06T13:00:16.081Z,84.92
2022-12-06T13:02:45.569Z,85.20
2022-12-06T13:05:40.703Z,84.83
2022-12-06T13:08:18.909Z,85.06
2022-12-06T13:10:49.445Z,85.04
2022-12-06T13:13:35.190Z,85.83
2022-12-06T13:16:10.138Z,87.04
2022-12-06T13:18:50.525Z,85.94
2022-12-06T13:21:22.915Z,85.73
2022-12-06T13:23:54.257Z,85.71
2022-12-06T13:26:29.916Z,85.41
2022-12-06T13:29:01.601Z,85.18
2022-12-06T13:31:36.507Z,84.85
2022-12-06T13:34:16.989Z,84.75
2022-12-06T13:36:43.989Z,84.61
2022-12-06T13:39:36.617Z,84.52
2022-12-06T13:42:18.342Z,84.16
2022-12-06T13:44:48.077Z,84.54
2022-12-06T13:47:27.204Z,84.32
2022-12-06T13:50:00.200Z,84.76
2022-12-06T13:52:42.483Z,84.84
2022-12-06T13:55:24.876Z,85.48
2022-12-06T13:58:00.800Z,85.69
2022-12-06T14:00:30.515Z,85.98
2022-12-06T14:02:58.634Z,87.04
2022-12-06T14:08:19.954Z,87.26
2022-12-06T14:10:47.287Z,88.21
2022-12-06T14:13:19.318Z,87.95
2022-12-06T14:15:48.992Z,88.65
2022-12-06T14:18:26.626Z,89.18
2022-12-06T14:20:56.821Z,90.43
2022-12-06T14:23:37.260Z,90.75
2022-12-06T14:26:20.260Z,91.27
2022-12-06T14:28:49.214Z,91.41
2022-12-06T14:31:30.111Z,91.88
2022-12-06T14:33:57.514Z,93.48
2022-12-06T14:36:29.350Z,94.40
2022-12-06T14:39:06.534Z,94.87
2022-12-06T14:41:58.012Z,95.31
2022-12-06T14:44:30.784Z,95.88
2022-12-06T14:46:58.864Z,96.36
2022-12-06T14:49:46.866Z,96.77
2022-12-06T14:52:23.110Z,97.60
2022-12-06T14:54:51.942Z,97.24
2022-12-06T14:57:31.220Z,97.39
2022-12-06T15:00:20.874Z,97.88
2022-12-06T15:03:11.648Z,97.02
2022-12-06T15:05:52.410Z,97.70
2022-12-06T15:08:28.540Z,97.33
2022-12-06T15:11:00.092Z,97.97
2022-12-06T15:28:00.252Z,100.00
2022-12-06T15:30:27.198Z,100.00
2022-12-06T15:32:54.782Z,100.00
2022-12-06T15:35:21.705Z,100.00
2022-12-06T15:37:50.517Z,100.00
2022-12-06T15:40:17.786Z,100.00
2022-12-06T15:42:44.663Z,100.00
2022-12-06T15:45:17.688Z,100.00
2022-12-06T15:47:45.113Z,100.00
2022-12-06T15:50:15.566Z,100.00
2022-12-06T15:52:42.397Z,100.00
2022-12-06T15:55:17.889Z,100.00
2022-12-06T15:57:45.322Z,100.00
2022-12-06T16:00:12.497Z,100.00
2022-12-06T16:02:39.513Z,100.00
2022-12-06T16:05:06.784Z,100.00
2022-12-06T16:07:33.726Z,100.00
2022-12-06T16:10:00.728Z,100.00
2022-12-06T16:12:47.603Z,100.00
2022-12-06T16:15:14.464Z,100.00
2022-12-06T16:17:41.341Z,100.00
2022-12-06T16:20:28.546Z,100.00
2022-12-06T16:23:14.340Z,100.00
2022-12-06T16:25:41.197Z,100.00
2022-12-06T16:28:08.200Z,100.00
2022-12-06T16:30:38.156Z,100.00
2022-12-06T16:33:07.686Z,100.00
2022-12-06T16:35:35.115Z,100.00
2022-12-06T16:38:02.022Z,100.00
2022-12-06T16:40:29.087Z,100.00
2022-12-06T16:42:55.996Z,100.00
2022-12-06T16:45:23.132Z,100.00
2022-12-06T16:47:51.104Z,100.00
2022-12-06T16:50:25.409Z,100.00
2022-12-06T16:52:52.737Z,100.00
2022-12-06T16:55:19.736Z,100.00
2022-12-06T16:57:46.781Z,100.00
2022-12-06T17:00:14.939Z,100.00
2022-12-06T17:02:44.493Z,100.00
2022-12-06T17:05:18.495Z,100.00
2022-12-06T17:07:45.389Z,100.00
2022-12-06T17:10:15.909Z,100.00
2022-12-06T17:12:43.388Z,100.00
2022-12-06T17:15:16.930Z,100.00
2022-12-06T17:17:43.841Z,100.00
2022-12-06T17:20:14.624Z,100.00
2022-12-06T17:22:42.186Z,100.00
2022-12-06T17:25:10.987Z,100.00
2022-12-06T17:27:40.334Z,100.00
2022-12-06T17:30:09.529Z,100.00
2022-12-06T17:32:36.486Z,100.00
2022-12-06T17:35:04.281Z,100.00
2022-12-06T17:37:31.423Z,100.00
2022-12-06T17:39:58.259Z,100.00
2022-12-06T17:42:43.772Z,100.00
2022-12-06T17:45:10.662Z,100.00
2022-12-06T17:47:37.459Z,100.00
2022-12-06T17:50:05.569Z,100.00
2022-12-06T17:52:32.744Z,100.00
2022-12-06T17:54:59.881Z,100.00
2022-12-06T17:57:27.087Z,100.00
2022-12-06T17:59:54.011Z,99.14
2022-12-06T18:02:25.909Z,98.77
2022-12-06T18:04:54.085Z,97.51
2022-12-06T18:07:20.954Z,97.07
2022-12-06T18:09:49.486Z,96.89
2022-12-06T18:12:19.292Z,97.46
2022-12-06T18:14:46.197Z,96.71
2022-12-06T18:17:13.228Z,97.15
2022-12-06T18:19:41.054Z,96.67
2022-12-06T18:22:08.039Z,96.44
2022-12-06T18:24:36.036Z,96.03
2022-12-06T18:27:04.755Z,96.07
2022-12-06T18:29:32.205Z,95.54
2022-12-06T18:31:59.270Z,95.63
2022-12-06T18:34:26.753Z,95.19
2022-12-06T18:36:53.604Z,95.52
2022-12-06T18:39:26.550Z,94.86
2022-12-06T18:41:54.335Z,95.19
2022-12-06T18:44:22.020Z,95.42
2022-12-06T18:46:49.051Z,94.35
2022-12-06T18:49:16.053Z,94.92
2022-12-06T18:51:43.094Z,94.65
2022-12-06T18:54:17.351Z,95.01
2022-12-06T18:56:44.344Z,94.72
2022-12-06T18:59:14.964Z,94.62
2022-12-06T19:01:42.224Z,94.87
2022-12-06T19:04:14.312Z,94.07
2022-12-06T19:06:42.546Z,95.21
2022-12-06T19:09:12.442Z,94.59
2022-12-06T19:11:41.723Z,95.38
2022-12-06T19:14:08.913Z,96.25
2022-12-06T19:16:51.022Z,96.84
2022-12-06T19:19:35.287Z,97.38
2022-12-06T19:22:02.306Z,98.51
2022-12-06T19:24:30.056Z,99.13
2022-12-06T19:27:00.113Z,98.49
2022-12-06T19:29:29.061Z,98.26
2022-12-06T19:31:55.972Z,98.19
2022-12-06T19:34:27.658Z,98.12
2022-12-06T19:36:55.193Z,97.34
2022-12-06T19:39:22.303Z,96.58
2022-12-06T19:42:07.952Z,95.92
2022-12-06T19:44:34.847Z,95.47
2022-12-06T19:47:02.211Z,94.62
2022-12-06T19:49:29.323Z,93.48
2022-12-06T19:51:56.353Z,93.12
2022-12-06T19:54:26.169Z,92.73
2022-12-06T19:56:55.109Z,91.96
2022-12-06T19:59:23.182Z,92.22
2022-12-06T20:01:50.678Z,92.11
2022-12-06T20:04:20.546Z,93.80
2022-12-06T20:06:47.745Z,94.48
2022-12-06T20:09:15.315Z,96.00
2022-12-06T20:12:01.251Z,97.67
2022-12-06T20:14:29.155Z,97.65
2022-12-06T20:16:56.155Z,98.06
2022-12-06T20:19:23.266Z,97.66
2022-12-06T20:21:50.463Z,97.13
2022-12-06T20:24:21.164Z,96.97
2022-12-06T20:26:53.516Z,96.09
2022-12-06T20:29:21.142Z,95.23
2022-12-06T20:31:53.705Z,94.98
2022-12-06T20:34:20.584Z,94.09
2022-12-06T20:36:47.474Z,92.92
2022-12-06T20:39:23.622Z,93.17
2022-12-06T20:41:51.000Z,93.41
2022-12-06T20:44:18.894Z,93.23
2022-12-06T20:46:46.252Z,93.38
2022-12-06T20:49:14.166Z,93.32
2022-12-06T20:51:41.444Z,93.73
2022-12-06T20:54:08.682Z,94.65
2022-12-06T20:56:39.205Z,95.42
2022-12-06T20:59:08.184Z,95.52
2022-12-06T21:01:39.228Z,96.07
2022-12-06T21:04:06.433Z,96.81
2022-12-06T21:06:33.401Z,96.59
2022-12-06T21:09:00.462Z,96.95
2022-12-06T21:11:27.449Z,97.84
2022-12-06T21:13:56.756Z,99.25
2022-12-06T21:16:29.620Z,100.00
2022-12-06T21:19:04.812Z,100.00
2022-12-06T21:21:37.099Z,100.00
2022-12-06T21:24:13.330Z,100.00
2022-12-06T21:26:40.214Z,100.00
2022-12-06T21:29:07.225Z,100.00
2022-12-06T21:31:37.274Z,100.00
2022-12-06T21:34:04.772Z,100.00
2022-12-06T21:36:32.205Z,100.00
2022-12-06T21:38:59.658Z,100.00
2022-12-06T21:41:27.541Z,100.00
2022-12-06T21:43:54.798Z,100.00
2022-12-06T21:46:24.397Z,100.00
2022-12-06T21:48:53.035Z,100.00
2022-12-06T21:51:21.163Z,100.00
2022-12-06T21:53:48.693Z,100.00
2022-12-06T21:56:18.799Z,100.00
2022-12-06T21:58:46.852Z,100.00
2022-12-06T22:01:17.944Z,99.73
2022-12-06T22:03:48.892Z,98.96
2022-12-06T22:06:16.070Z,97.55
2022-12-06T22:08:44.715Z,97.58
2022-12-06T22:11:17.581Z,97.08
2022-12-06T22:13:45.815Z,95.91
2022-12-06T22:16:13.322Z,96.20
2022-12-06T22:18:45.325Z,95.65
2022-12-06T22:21:18.556Z,96.47
2022-12-06T22:23:45.903Z,96.22
2022-12-06T22:26:15.759Z,95.78
2022-12-06T22:28:42.741Z,96.01
2022-12-06T22:31:09.672Z,97.00
2022-12-06T22:33:36.795Z,97.85
2022-12-06T22:36:04.465Z,98.33
2022-12-06T22:38:31.479Z,97.51
2022-12-06T22:41:00.090Z,97.42
2022-12-06T22:43:28.592Z,97.39
2022-12-06T22:45:56.125Z,97.69
2022-12-06T22:48:22.978Z,98.53
2022-12-06T22:50:49.892Z,98.47
2022-12-06T22:53:16.778Z,98.15
2022-12-06T22:55:43.617Z,97.80
2022-12-06T22:58:11.386Z,97.80
2022-12-06T23:00:38.443Z,97.71
2022-12-06T23:03:05.415Z,98.08
2022-12-06T23:05:32.295Z,98.31
2022-12-06T23:07:59.252Z,98.74
2022-12-06T23:10:26.317Z,98.91
2022-12-06T23:12:53.169Z,98.52
2022-12-06T23:15:20.137Z,98.67
2022-12-06T23:17:49.312Z,98.45
2022-12-06T23:20:16.400Z,98.53
2022-12-06T23:22:43.240Z,98.03
2022-12-06T23:25:12.986Z,98.64
2022-12-06T23:27:39.855Z,98.88
2022-12-06T23:30:07.442Z,99.20
2022-12-06T23:32:35.142Z,100.00
2022-12-06T23:35:02.074Z,100.00
2022-12-06T23:37:28.929Z,100.00
2022-12-06T23:39:55.784Z,100.00
2022-12-06T23:42:22.732Z,100.00
2022-12-06T23:44:49.561Z,100.00
2022-12-06T23:47:16.492Z,99.90
2022-12-06T23:49:43.371Z,99.83
2022-12-06T23:52:13.418Z,99.26
2022-12-06T23:54:40.728Z,98.90
2022-12-06T23:57:07.598Z,99.93
2022-12-06T23:59:34.527Z,99.07
